Joao Neiva, Brazil
Current Conditions -  °F | °C
As of 7:00 AM on Thursday 23 Oct 2014 (Local Time) from SBVT Reporting Station
Broken Clouds Broken Clouds  
Wind Chill: 70°   Ceiling: 7000
Heat Index: 70°   Visibility: 6mi
Dew Point: 61°   Wind: 7mph
Humidity: 73%   Direction: 240°WSW
Pressure: 30.15"   Gusts: NA
Location:  19.75°S, 40.4°W
Report Text: SBVT 230900Z 24006KT 9999 FEW030 BKN070 21/16 Q1021
Loading
Personal Weather Stations






























Interactive Weather Map
Tropical Storm Tracking
New forecast layout! Learn more

10-Day Weather Forecast

Advertisements
Track Severe Weather on mobile